Olympic Scout — WDD7216 — position and weather

sailwx.info

Track history (hours):
 
Tides and Currents Weather Stations Pressure Air Temp Water Temp Dewpoint Dewpoint Depression Visibility Wind Speed Wind Dir Waves Ship Positions

Olympic Scout

Owner: Harley Marine Services, Inc., Seattle, WA. More information available from US FCC via Universal Licensing System and Coast Guard Vessel Documentation Center.

Last reported at 2018-Jan-21 10:30 UTC. Time now 2018-Jan-21 10:47 UTC.
Position N 48°31' W 122°36'.

Length 31 m; draft 0.3 m.

Type: Tug. MMSI: 366998440.

Date/timePositionNaut miles runAvg speedWind from/ knotsBaromVisibWave heightAir tempDewpointWater temp
2018-Jan-21 10:30N 48°31' W 122°36'0 0.0
2018-Jan-21 10:00N 48°31' W 122°36'0 0.0
2018-Jan-21 09:30N 48°31' W 122°36'0 0.1
2018-Jan-21 09:00N 48°31' W 122°36'1 1.2
2018-Jan-21 08:30N 48°31' W 122°37'2 3.0
2018-Jan-21 08:00N 48°31' W 122°40'2 3.2
2018-Jan-21 07:30N 48°31' W 122°42'1 2.8
2018-Jan-21 07:00N 48°31' W 122°44'3 5.3
2018-Jan-21 06:30N 48°34' W 122°45'3 6.3
2018-Jan-21 06:00N 48°37' W 122°45'3 6.2
2018-Jan-21 05:30N 48°40' W 122°44'3 5.2
2018-Jan-21 05:00N 48°43' W 122°45'4 4.7
2018-Jan-21 04:03N 48°47' W 122°45'1 0.2
2018-Jan-20 20:34N 48°48' W 122°44'2 7.6
2018-Jan-20 20:19N 48°46' W 122°45'3 7.4
2018-Jan-20 19:55N 48°44' W 122°44'2 5.2
2018-Jan-20 19:30N 48°42' W 122°43'3 6.2
2018-Jan-20 19:00N 48°39' W 122°44'3 5.9
2018-Jan-20 18:30N 48°36' W 122°45'3 6.0
2018-Jan-20 18:00N 48°33' W 122°45'4 7.3
2018-Jan-20 17:30N 48°29' W 122°44'5 7.8
2018-Jan-20 16:54N 48°24' W 122°44'3 7.9
2018-Jan-20 16:28N 48°21' W 122°45'9 7.3
2018-Jan-20 15:16N 48°12' W 122°48'15 5.0
2018-Jan-20 12:09N 47°59' W 122°35'1 5.3
2018-Jan-20 11:59N 47°59' W 122°35'2 4.4
2018-Jan-20 11:30N 47°57' W 122°32'3 6.4
2018-Jan-20 11:00N 47°55' W 122°29'4 7.1
2018-Jan-20 10:31N 47°52' W 122°27'4 7.8
2018-Jan-20 10:00N 47°48' W 122°26'4 8.1
2018-Jan-20 09:30N 47°44' W 122°26'4 8.2
2018-Jan-20 09:00N 47°40' W 122°27'4 7.4
2018-Jan-20 08:30N 47°37' W 122°24'2 4.7
2018-Jan-20 08:00N 47°36' W 122°21'1 1.0
2018-Jan-20 07:29N 47°35' W 122°21'0 0.0
2018-Jan-20 07:00N 47°35' W 122°21'0 0.0
2018-Jan-20 06:30N 47°35' W 122°21'0 0.0
2018-Jan-20 06:00N 47°35' W 122°21'0 0.1
2018-Jan-20 05:30N 47°35' W 122°21'0 0.0
2018-Jan-20 05:00N 47°35' W 122°21'0 0.1
2018-Jan-20 04:29N 47°35' W 122°21'0 0.0
2018-Jan-20 04:00N 47°35' W 122°21'0 0.0
2018-Jan-20 03:30N 47°35' W 122°21'0 0.0
2018-Jan-20 03:00N 47°35' W 122°21'0 0.0
2018-Jan-20 02:31N 47°35' W 122°21'0 0.0
2018-Jan-20 02:00N 47°35' W 122°21'0 0.0
2018-Jan-20 01:27N 47°35' W 122°21'0 0.3
2018-Jan-20 00:59N 47°35' W 122°21'0 0.9
2018-Jan-20 00:30N 47°34' W 122°21'0 0.0
2018-Jan-20 00:00N 47°34' W 122°21'0 0.0
2018-Jan-19 23:29N 47°34' W 122°21'0 0.0
2018-Jan-19 23:00N 47°34' W 122°21'0 0.0
2018-Jan-19 22:30N 47°34' W 122°21'0 0.0
2018-Jan-19 22:01N 47°34' W 122°21'0 0.0
2018-Jan-19 21:29N 47°34' W 122°21'0 0.0
2018-Jan-19 21:00N 47°34' W 122°21'0 0.0
2018-Jan-19 20:30N 47°34' W 122°21'1 1.0
2018-Jan-19 19:56N 47°35' W 122°21'0 0.1
2018-Jan-19 19:22N 47°35' W 122°21'0 0.9
2018-Jan-19 18:55N 47°35' W 122°21'0 0.0
2018-Jan-19 18:27N 47°35' W 122°21'0 0.0
2018-Jan-19 17:09N 47°35' W 122°21'0 0.0
2018-Jan-19 16:58N 47°35' W 122°21'0 0.1
2018-Jan-19 16:17N 47°35' W 122°21'0 0.0
2018-Jan-19 15:59N 47°35' W 122°21'0 0.0
2018-Jan-19 15:30N 47°35' W 122°21'0 0.0
2018-Jan-19 14:19N 47°35' W 122°21'0 0.0
2018-Jan-19 13:56N 47°35' W 122°21'0 0.0
2018-Jan-19 13:30N 47°35' W 122°21'0 0.0
2018-Jan-19 10:39N 47°35' W 122°21'0 0.0
2018-Jan-19 09:49N 47°35' W 122°21'0 0.0
2018-Jan-19 09:30N 47°35' W 122°21'0 0.0
2018-Jan-19 08:49N 47°35' W 122°21'0 0.0
2018-Jan-19 08:20N 47°35' W 122°21'0 0.0
2018-Jan-19 07:58N 47°35' W 122°21'0 0.0
2018-Jan-19 07:29N 47°35' W 122°21'0 0.0
2018-Jan-19 07:00N 47°35' W 122°21'0 0.0
2018-Jan-19 06:28N 47°35' W 122°21'0 0.0
2018-Jan-19 05:59N 47°35' W 122°21'0 0.0
2018-Jan-19 05:30N 47°35' W 122°21'0 0.0
2018-Jan-19 04:59N 47°35' W 122°21'0 0.0
2018-Jan-19 04:30N 47°35' W 122°21'0 0.0
2018-Jan-19 04:00N 47°35' W 122°21'0 0.2
2018-Jan-19 02:04N 47°35' W 122°21'0 0.0
2018-Jan-19 01:56N 47°35' W 122°21'0 0.0
2018-Jan-19 01:30N 47°35' W 122°21'0 0.0
2018-Jan-19 01:01N 47°35' W 122°21'0 0.6
2018-Jan-19 00:30N 47°35' W 122°21'0 0.0
2018-Jan-18 23:58N 47°35' W 122°21'0 0.0
2018-Jan-18 23:30N 47°35' W 122°21'0 0.2
2018-Jan-18 23:00N 47°36' W 122°21'0 0.1
2018-Jan-18 22:30N 47°35' W 122°21'0 0.0
2018-Jan-18 22:00N 47°35' W 122°21'0 0.0
2018-Jan-18 21:30N 47°35' W 122°21'0 0.0
2018-Jan-18 21:01N 47°35' W 122°21'0 0.0
2018-Jan-18 20:30N 47°35' W 122°21'0 0.0
2018-Jan-18 20:00N 47°35' W 122°21'0 0.0
2018-Jan-18 19:31N 47°35' W 122°21'0 0.0
2018-Jan-18 19:00N 47°35' W 122°21'0 0.0
2018-Jan-18 18:16N 47°35' W 122°21'0 0.0
2018-Jan-18 16:10N 47°35' W 122°21'0 0.0
2018-Jan-18 15:51N 47°35' W 122°21'0 0.0
2018-Jan-18 15:29N 47°35' W 122°21'0 0.0
2018-Jan-18 14:59N 47°35' W 122°21'0 0.0
2018-Jan-18 14:30N 47°35' W 122°21'0 0.0
2018-Jan-18 13:58N 47°35' W 122°21'0 0.0
2018-Jan-18 13:27N 47°35' W 122°21'0 0.0
2018-Jan-18 13:00N 47°35' W 122°21'0 0.0
2018-Jan-18 12:30N 47°35' W 122°21'0 0.0
2018-Jan-18 11:59N 47°35' W 122°21'0 0.0
2018-Jan-18 11:30N 47°35' W 122°21'0 0.0
2018-Jan-18 11:00N 47°35' W 122°21'0 0.0
2018-Jan-18 10:29N 47°35' W 122°21'0 0.0
2018-Jan-18 10:00N 47°35' W 122°21'0 0.0
2018-Jan-18 09:30N 47°35' W 122°21'0 0.0
2018-Jan-18 09:00N 47°35' W 122°21'0 0.0
2018-Jan-18 08:31N 47°35' W 122°21'0 0.0
2018-Jan-18 08:00N 47°35' W 122°21'0 0.0
2018-Jan-18 07:30N 47°35' W 122°21'0 0.0
2018-Jan-18 07:00N 47°35' W 122°21'0 0.0
2018-Jan-18 06:30N 47°35' W 122°21'0 0.0
2018-Jan-18 06:00N 47°35' W 122°21'0 0.0
2018-Jan-18 05:27N 47°35' W 122°21'0 0.0
2018-Jan-18 05:00N 47°35' W 122°21'0 0.0
2018-Jan-18 04:30N 47°35' W 122°21'0 0.0
2018-Jan-18 03:59N 47°35' W 122°21'0 0.0
2018-Jan-18 03:30N 47°35' W 122°21'0 0.0
2018-Jan-18 03:00N 47°35' W 122°21'0 0.0
2018-Jan-18 02:30N 47°35' W 122°21'0 0.0
2018-Jan-18 02:00N 47°35' W 122°21'0 0.0
2018-Jan-18 01:31N 47°35' W 122°21'0 0.0
2018-Jan-18 01:00N 47°35' W 122°21'1 0.8
2018-Jan-18 00:00N 47°35' W 122°21'0 4.2
2018-Jan-17 23:57N 47°34' W 122°21'  
2018-Jan-12 07:48N 48°48' W 122°45'2 4.9
2018-Jan-12 07:18N 48°45' W 122°45'2 5.4
2018-Jan-12 07:00N 48°44' W 122°44'3 6.7
2018-Jan-12 06:30N 48°41' W 122°42'3 5.2
2018-Jan-12 06:00N 48°38' W 122°44'2 4.0
2018-Jan-12 05:30N 48°36' W 122°45'2 4.6
2018-Jan-12 05:00N 48°34' W 122°45'3 5.1
2018-Jan-12 04:30N 48°32' W 122°44'3 5.3
2018-Jan-12 04:00N 48°29' W 122°44'1 2.9
2018-Jan-12 03:30N 48°27' W 122°44'1 2.7
2018-Jan-12 03:00N 48°26' W 122°44'2 2.7
2018-Jan-12 02:23N 48°24' W 122°44'24 4.0
2018-Jan-11 20:16N 48°01' W 122°36'2 4.6
2018-Jan-11 19:56N 47°59' W 122°35'2 4.8
2018-Jan-11 19:30N 47°58' W 122°33'3 5.4
2018-Jan-11 19:00N 47°56' W 122°30'3 5.2
2018-Jan-11 18:30N 47°54' W 122°28'2 4.6
2018-Jan-11 18:00N 47°51' W 122°27'3 5.0
2018-Jan-11 17:30N 47°49' W 122°27'3 5.1
2018-Jan-11 17:00N 47°46' W 122°26'3 5.5
2018-Jan-11 16:30N 47°44' W 122°26'4 7.7
2018-Jan-11 16:00N 47°40' W 122°27'4 7.6
2018-Jan-11 15:30N 47°36' W 122°27'4 7.7
2018-Jan-11 15:00N 47°32' W 122°26'4 7.7
2018-Jan-11 14:30N 47°29' W 122°24'4 7.1
2018-Jan-11 14:00N 47°25' W 122°22'3 6.2
2018-Jan-11 13:30N 47°22' W 122°22'4 7.3
2018-Jan-11 13:00N 47°20' W 122°26'2 4.6
2018-Jan-11 12:29N 47°17' W 122°26'  
Track history (hours):
 
Tides and Currents Weather Stations Pressure Air Temp Water Temp Dewpoint Dewpoint Depression Visibility Wind Speed Wind Dir Waves Ship Positions

Olympic Scout

Owner: Harley Marine Services, Inc., Seattle, WA. More information available from US FCC via Universal Licensing System and Coast Guard Vessel Documentation Center.

Last reported at 2018-Jan-21 10:30 UTC. Time now 2018-Jan-21 10:47 UTC.
Position N 48°31' W 122°36'.

Length 31 m; draft 0.3 m.

Type: Tug. MMSI: 366998440.

Date/timePositionNaut miles runAvg speedWind from/ knotsBaromVisibWave heightAir tempDewpointWater temp
2018-Jan-21 10:30N 48°31' W 122°36'0 0.0
2018-Jan-21 10:00N 48°31' W 122°36'0 0.0
2018-Jan-21 09:30N 48°31' W 122°36'0 0.1
2018-Jan-21 09:00N 48°31' W 122°36'1 1.2
2018-Jan-21 08:30N 48°31' W 122°37'2 3.0
2018-Jan-21 08:00N 48°31' W 122°40'2 3.2
2018-Jan-21 07:30N 48°31' W 122°42'1 2.8
2018-Jan-21 07:00N 48°31' W 122°44'3 5.3
2018-Jan-21 06:30N 48°34' W 122°45'3 6.3
2018-Jan-21 06:00N 48°37' W 122°45'3 6.2
2018-Jan-21 05:30N 48°40' W 122°44'3 5.2
2018-Jan-21 05:00N 48°43' W 122°45'4 4.7
2018-Jan-21 04:03N 48°47' W 122°45'1 0.2
2018-Jan-20 20:34N 48°48' W 122°44'2 7.6
2018-Jan-20 20:19N 48°46' W 122°45'3 7.4
2018-Jan-20 19:55N 48°44' W 122°44'2 5.2
2018-Jan-20 19:30N 48°42' W 122°43'3 6.2
2018-Jan-20 19:00N 48°39' W 122°44'3 5.9
2018-Jan-20 18:30N 48°36' W 122°45'3 6.0
2018-Jan-20 18:00N 48°33' W 122°45'4 7.3
2018-Jan-20 17:30N 48°29' W 122°44'5 7.8
2018-Jan-20 16:54N 48°24' W 122°44'3 7.9
2018-Jan-20 16:28N 48°21' W 122°45'9 7.3
2018-Jan-20 15:16N 48°12' W 122°48'15 5.0
2018-Jan-20 12:09N 47°59' W 122°35'1 5.3
2018-Jan-20 11:59N 47°59' W 122°35'2 4.4
2018-Jan-20 11:30N 47°57' W 122°32'3 6.4
2018-Jan-20 11:00N 47°55' W 122°29'4 7.1
2018-Jan-20 10:31N 47°52' W 122°27'4 7.8
2018-Jan-20 10:00N 47°48' W 122°26'4 8.1
2018-Jan-20 09:30N 47°44' W 122°26'4 8.2
2018-Jan-20 09:00N 47°40' W 122°27'4 7.4
2018-Jan-20 08:30N 47°37' W 122°24'2 4.7
2018-Jan-20 08:00N 47°36' W 122°21'1 1.0
2018-Jan-20 07:29N 47°35' W 122°21'0 0.0
2018-Jan-20 07:00N 47°35' W 122°21'0 0.0
2018-Jan-20 06:30N 47°35' W 122°21'0 0.0
2018-Jan-20 06:00N 47°35' W 122°21'0 0.1
2018-Jan-20 05:30N 47°35' W 122°21'0 0.0
2018-Jan-20 05:00N 47°35' W 122°21'0 0.1
2018-Jan-20 04:29N 47°35' W 122°21'0 0.0
2018-Jan-20 04:00N 47°35' W 122°21'0 0.0
2018-Jan-20 03:30N 47°35' W 122°21'0 0.0
2018-Jan-20 03:00N 47°35' W 122°21'0 0.0
2018-Jan-20 02:31N 47°35' W 122°21'0 0.0
2018-Jan-20 02:00N 47°35' W 122°21'0 0.0
2018-Jan-20 01:27N 47°35' W 122°21'0 0.3
2018-Jan-20 00:59N 47°35' W 122°21'0 0.9
2018-Jan-20 00:30N 47°34' W 122°21'0 0.0
2018-Jan-20 00:00N 47°34' W 122°21'0 0.0
2018-Jan-19 23:29N 47°34' W 122°21'0 0.0
2018-Jan-19 23:00N 47°34' W 122°21'0 0.0
2018-Jan-19 22:30N 47°34' W 122°21'0 0.0
2018-Jan-19 22:01N 47°34' W 122°21'0 0.0
2018-Jan-19 21:29N 47°34' W 122°21'0 0.0
2018-Jan-19 21:00N 47°34' W 122°21'0 0.0
2018-Jan-19 20:30N 47°34' W 122°21'1 1.0
2018-Jan-19 19:56N 47°35' W 122°21'0 0.1
2018-Jan-19 19:22N 47°35' W 122°21'0 0.9
2018-Jan-19 18:55N 47°35' W 122°21'0 0.0
2018-Jan-19 18:27N 47°35' W 122°21'0 0.0
2018-Jan-19 17:09N 47°35' W 122°21'0 0.0
2018-Jan-19 16:58N 47°35' W 122°21'0 0.1
2018-Jan-19 16:17N 47°35' W 122°21'0 0.0
2018-Jan-19 15:59N 47°35' W 122°21'0 0.0
2018-Jan-19 15:30N 47°35' W 122°21'0 0.0
2018-Jan-19 14:19N 47°35' W 122°21'0 0.0
2018-Jan-19 13:56N 47°35' W 122°21'0 0.0
2018-Jan-19 13:30N 47°35' W 122°21'0 0.0
2018-Jan-19 10:39N 47°35' W 122°21'0 0.0
2018-Jan-19 09:49N 47°35' W 122°21'0 0.0
2018-Jan-19 09:30N 47°35' W 122°21'0 0.0
2018-Jan-19 08:49N 47°35' W 122°21'0 0.0
2018-Jan-19 08:20N 47°35' W 122°21'0 0.0
2018-Jan-19 07:58N 47°35' W 122°21'0 0.0
2018-Jan-19 07:29N 47°35' W 122°21'0 0.0
2018-Jan-19 07:00N 47°35' W 122°21'0 0.0
2018-Jan-19 06:28N 47°35' W 122°21'0 0.0
2018-Jan-19 05:59N 47°35' W 122°21'0 0.0
2018-Jan-19 05:30N 47°35' W 122°21'0 0.0
2018-Jan-19 04:59N 47°35' W 122°21'0 0.0
2018-Jan-19 04:30N 47°35' W 122°21'0 0.0
2018-Jan-19 04:00N 47°35' W 122°21'0 0.2
2018-Jan-19 02:04N 47°35' W 122°21'0 0.0
2018-Jan-19 01:56N 47°35' W 122°21'0 0.0
2018-Jan-19 01:30N 47°35' W 122°21'0 0.0
2018-Jan-19 01:01N 47°35' W 122°21'0 0.6
2018-Jan-19 00:30N 47°35' W 122°21'0 0.0
2018-Jan-18 23:58N 47°35' W 122°21'0 0.0
2018-Jan-18 23:30N 47°35' W 122°21'0 0.2
2018-Jan-18 23:00N 47°36' W 122°21'0 0.1
2018-Jan-18 22:30N 47°35' W 122°21'0 0.0
2018-Jan-18 22:00N 47°35' W 122°21'0 0.0
2018-Jan-18 21:30N 47°35' W 122°21'0 0.0
2018-Jan-18 21:01N 47°35' W 122°21'0 0.0
2018-Jan-18 20:30N 47°35' W 122°21'0 0.0
2018-Jan-18 20:00N 47°35' W 122°21'0 0.0
2018-Jan-18 19:31N 47°35' W 122°21'0 0.0
2018-Jan-18 19:00N 47°35' W 122°21'0 0.0
2018-Jan-18 18:16N 47°35' W 122°21'0 0.0
2018-Jan-18 16:10N 47°35' W 122°21'0 0.0
2018-Jan-18 15:51N 47°35' W 122°21'0 0.0
2018-Jan-18 15:29N 47°35' W 122°21'0 0.0
2018-Jan-18 14:59N 47°35' W 122°21'0 0.0
2018-Jan-18 14:30N 47°35' W 122°21'0 0.0
2018-Jan-18 13:58N 47°35' W 122°21'0 0.0
2018-Jan-18 13:27N 47°35' W 122°21'0 0.0
2018-Jan-18 13:00N 47°35' W 122°21'0 0.0
2018-Jan-18 12:30N 47°35' W 122°21'0 0.0
2018-Jan-18 11:59N 47°35' W 122°21'0 0.0
2018-Jan-18 11:30N 47°35' W 122°21'0 0.0
2018-Jan-18 11:00N 47°35' W 122°21'0 0.0
2018-Jan-18 10:29N 47°35' W 122°21'0 0.0
2018-Jan-18 10:00N 47°35' W 122°21'0 0.0
2018-Jan-18 09:30N 47°35' W 122°21'0 0.0
2018-Jan-18 09:00N 47°35' W 122°21'0 0.0
2018-Jan-18 08:31N 47°35' W 122°21'0 0.0
2018-Jan-18 08:00N 47°35' W 122°21'0 0.0
2018-Jan-18 07:30N 47°35' W 122°21'0 0.0
2018-Jan-18 07:00N 47°35' W 122°21'0 0.0
2018-Jan-18 06:30N 47°35' W 122°21'0 0.0
2018-Jan-18 06:00N 47°35' W 122°21'0 0.0
2018-Jan-18 05:27N 47°35' W 122°21'0 0.0
2018-Jan-18 05:00N 47°35' W 122°21'0 0.0
2018-Jan-18 04:30N 47°35' W 122°21'0 0.0
2018-Jan-18 03:59N 47°35' W 122°21'0 0.0
2018-Jan-18 03:30N 47°35' W 122°21'0 0.0
2018-Jan-18 03:00N 47°35' W 122°21'0 0.0
2018-Jan-18 02:30N 47°35' W 122°21'0 0.0
2018-Jan-18 02:00N 47°35' W 122°21'0 0.0
2018-Jan-18 01:31N 47°35' W 122°21'0 0.0
2018-Jan-18 01:00N 47°35' W 122°21'1 0.8
2018-Jan-18 00:00N 47°35' W 122°21'0 4.2
2018-Jan-17 23:57N 47°34' W 122°21'  
2018-Jan-12 07:48N 48°48' W 122°45'2 4.9
2018-Jan-12 07:18N 48°45' W 122°45'2 5.4
2018-Jan-12 07:00N 48°44' W 122°44'3 6.7
2018-Jan-12 06:30N 48°41' W 122°42'3 5.2
2018-Jan-12 06:00N 48°38' W 122°44'2 4.0
2018-Jan-12 05:30N 48°36' W 122°45'2 4.6
2018-Jan-12 05:00N 48°34' W 122°45'3 5.1
2018-Jan-12 04:30N 48°32' W 122°44'3 5.3
2018-Jan-12 04:00N 48°29' W 122°44'1 2.9
2018-Jan-12 03:30N 48°27' W 122°44'1 2.7
2018-Jan-12 03:00N 48°26' W 122°44'2 2.7
2018-Jan-12 02:23N 48°24' W 122°44'24 4.0
2018-Jan-11 20:16N 48°01' W 122°36'2 4.6
2018-Jan-11 19:56N 47°59' W 122°35'2 4.8
2018-Jan-11 19:30N 47°58' W 122°33'3 5.4
2018-Jan-11 19:00N 47°56' W 122°30'3 5.2
2018-Jan-11 18:30N 47°54' W 122°28'2 4.6
2018-Jan-11 18:00N 47°51' W 122°27'3 5.0
2018-Jan-11 17:30N 47°49' W 122°27'3 5.1
2018-Jan-11 17:00N 47°46' W 122°26'3 5.5
2018-Jan-11 16:30N 47°44' W 122°26'4 7.7
2018-Jan-11 16:00N 47°40' W 122°27'4 7.6
2018-Jan-11 15:30N 47°36' W 122°27'4 7.7
2018-Jan-11 15:00N 47°32' W 122°26'4 7.7
2018-Jan-11 14:30N 47°29' W 122°24'4 7.1
2018-Jan-11 14:00N 47°25' W 122°22'3 6.2
2018-Jan-11 13:30N 47°22' W 122°22'4 7.3
2018-Jan-11 13:00N 47°20' W 122°26'2 4.6
2018-Jan-11 12:29N 47°17' W 122°26'  

Dump ship's entire track history